Time;durP1;ratioP1;P1;durP2;ratioP2;P2;SDS_P1;SDS_P2;PMS_P1;PMS_P2;Temp;Humidity;BMP_temperature;BMP_pressure;BME280_temperature;BME280_humidity;BME280_pressure;Samples;Min_cycle;Max_cycle;Signal;HPM_P1;HPM_P2
2023/08/02 00:02:16;;;;;;;5.80;2.63;;;;;;;19.02;100.00;99708.09;5102481;28;20040;-61
2023/08/02 00:04:44;;;;;;;4.90;2.58;;;;;;;19.05;100.00;99701.72;5114470;28;20047;-62
2023/08/02 00:07:11;;;;;;;4.88;2.35;;;;;;;19.01;100.00;99696.13;5105991;28;20052;-60
2023/08/02 00:09:39;;;;;;;8.80;2.70;;;;;;;19.02;100.00;99682.97;5075884;28;20814;-61
2023/08/02 00:12:06;;;;;;;5.35;2.35;;;;;;;18.98;100.00;99684.94;5114062;28;20048;-60
2023/08/02 00:14:34;;;;;;;6.35;2.10;;;;;;;18.94;100.00;99676.56;5096590;28;20056;-61
2023/08/02 00:17:01;;;;;;;4.05;1.83;;;;;;;18.99;100.00;99670.59;5115433;28;20047;-60
2023/08/02 00:19:28;;;;;;;4.07;1.95;;;;;;;18.80;100.00;99678.50;5114066;28;20055;-60
2023/08/02 00:21:55;;;;;;;5.38;1.65;;;;;;;18.75;100.00;99659.34;5115336;28;20044;-62
2023/08/02 00:24:24;;;;;;;5.80;2.28;;;;;;;18.84;100.00;99657.81;5114456;28;20039;-61
2023/08/02 00:26:51;;;;;;;4.28;1.70;;;;;;;18.81;100.00;99647.41;5096490;28;20048;-60
2023/08/02 00:29:18;;;;;;;3.72;1.75;;;;;;;18.71;100.00;99647.38;5114854;28;20074;-61
2023/08/02 00:31:46;;;;;;;3.17;1.48;;;;;;;18.79;100.00;99633.06;5114700;28;20050;-61
2023/08/02 00:34:13;;;;;;;3.75;1.50;;;;;;;18.74;100.00;99630.66;5114807;28;20039;-61
2023/08/02 00:36:40;;;;;;;3.92;1.55;;;;;;;18.72;100.00;99632.25;5084843;28;20057;-61
2023/08/02 00:39:09;;;;;;;3.33;1.42;;;;;;;18.59;100.00;99623.44;5075972;28;20050;-61
2023/08/02 00:41:36;;;;;;;3.60;1.27;;;;;;;18.61;100.00;99612.69;5074364;28;20036;-61
2023/08/02 00:44:05;;;;;;;5.78;1.45;;;;;;;18.63;100.00;99617.88;5111372;28;20399;-60
2023/08/02 00:46:33;;;;;;;3.00;1.30;;;;;;;18.60;100.00;99601.94;5113590;28;20058;-61
2023/08/02 00:49:00;;;;;;;3.25;1.27;;;;;;;18.55;100.00;99586.38;5076039;28;20074;-62
2023/08/02 00:51:30;;;;;;;2.65;1.00;;;;;;;18.59;100.00;99573.25;5093865;28;20052;-61
2023/08/02 00:54:02;;;;;;;4.45;1.08;;;;;;;18.83;100.00;99555.75;5093961;28;20048;-61
2023/08/02 00:56:30;;;;;;;2.35;0.98;;;;;;;18.71;100.00;99546.94;5114296;28;20047;-60
2023/08/02 00:58:58;;;;;;;2.88;0.88;;;;;;;18.82;100.00;99534.63;5114661;28;20054;-61
2023/08/02 01:01:26;;;;;;;2.95;0.98;;;;;;;18.77;100.00;99535.03;5114114;28;20050;-61
2023/08/02 01:03:55;;;;;;;2.10;0.82;;;;;;;18.58;100.00;99538.19;5082273;28;20059;-61
2023/08/02 01:06:22;;;;;;;3.80;0.90;;;;;;;18.59;100.00;99541.75;5100366;28;20048;-60
2023/08/02 01:09:16;;;;;;;5.47;1.30;;;;;;;18.43;100.00;99530.19;5050900;28;20052;-60
2023/08/02 01:11:51;;;;;;;2.28;0.95;;;;;;;18.46;100.00;99513.44;5074376;28;20042;-61
2023/08/02 01:14:20;;;;;;;2.95;0.90;;;;;;;18.54;100.00;99506.69;5046815;28;20077;-61
2023/08/02 01:16:49;;;;;;;1.88;1.00;;;;;;;18.66;100.00;99497.94;5093292;28;20055;-61
2023/08/02 01:19:22;;;;;;;1.90;0.70;;;;;;;18.58;100.00;99492.75;5058990;28;20043;-60
2023/08/02 01:21:49;;;;;;;4.15;0.90;;;;;;;18.72;100.00;99496.38;5075405;28;20044;-61
2023/08/02 01:24:17;;;;;;;3.63;0.63;;;;;;;18.70;100.00;99484.81;5077833;28;20656;-63
2023/08/02 01:26:47;;;;;;;1.80;0.80;;;;;;;18.80;100.00;99477.63;5114087;28;20051;-64
2023/08/02 01:29:19;;;;;;;3.00;0.75;;;;;;;18.75;100.00;99464.88;5094058;28;20074;-63
2023/08/02 01:31:48;;;;;;;3.65;0.60;;;;;;;18.62;100.00;99446.16;5094823;28;20043;-61
2023/08/02 01:34:16;;;;;;;2.42;0.70;;;;;;;18.74;100.00;99432.59;5095544;28;20521;-63
2023/08/02 01:36:44;;;;;;;3.08;0.80;;;;;;;18.47;100.00;99425.81;5092227;28;20051;-63
2023/08/02 01:39:11;;;;;;;1.88;0.70;;;;;;;18.45;100.00;99430.97;5092182;28;20047;-64
2023/08/02 01:41:39;;;;;;;1.38;0.50;;;;;;;18.51;100.00;99423.03;5089324;28;20043;-64
2023/08/02 01:44:06;;;;;;;2.97;0.63;;;;;;;18.49;100.00;99417.84;5112780;28;20043;-63
2023/08/02 01:46:34;;;;;;;0.90;0.70;;;;;;;18.67;100.00;99417.84;5092227;28;20063;-63
2023/08/02 01:49:01;;;;;;;1.83;0.70;;;;;;;18.81;100.00;99409.47;5092163;28;20052;-63
2023/08/02 01:51:28;;;;;;;1.95;0.80;;;;;;;18.84;100.00;99405.88;5075477;28;20693;-63
2023/08/02 01:53:56;;;;;;;2.55;0.70;;;;;;;18.76;100.00;99407.88;5105709;28;20044;-63
2023/08/02 01:56:23;;;;;;;1.15;0.60;;;;;;;18.63;100.00;99411.47;5112894;28;20553;-63
2023/08/02 01:58:51;;;;;;;1.38;0.70;;;;;;;18.66;100.00;99407.88;5112229;28;20047;-63
2023/08/02 02:01:18;;;;;;;1.25;0.77;;;;;;;18.67;100.00;99401.13;5112085;28;20051;-63
2023/08/02 02:03:45;;;;;;;2.47;0.98;;;;;;;18.56;100.00;99387.19;5095277;28;20055;-63
2023/08/02 02:06:13;;;;;;;2.78;0.90;;;;;;;18.62;100.00;99395.94;5113373;28;20043;-63
2023/08/02 02:08:41;;;;;;;3.67;0.80;;;;;;;18.71;100.00;99388.75;5108794;28;20051;-63
2023/08/02 02:11:08;;;;;;;3.35;1.00;;;;;;;18.75;100.00;99381.19;5091534;28;20044;-63
2023/08/02 02:13:35;;;;;;;1.98;0.70;;;;;;;18.84;100.00;99380.78;5112295;28;20055;-63
2023/08/02 02:16:03;;;;;;;1.35;0.77;;;;;;;18.81;100.00;99379.56;5113339;28;20851;-63
2023/08/02 02:18:30;;;;;;;2.92;0.90;;;;;;;18.81;100.00;99357.25;5113675;28;20051;-63
2023/08/02 02:20:59;;;;;;;1.50;0.90;;;;;;;18.88;100.00;99359.25;5113443;28;20491;-63
2023/08/02 02:23:28;;;;;;;1.92;0.70;;;;;;;18.96;100.00;99356.03;5095624;28;20054;-60
2023/08/02 02:25:56;;;;;;;1.50;0.80;;;;;;;18.92;100.00;99348.84;5095180;28;20051;-61
2023/08/02 02:28:23;;;;;;;2.47;0.90;;;;;;;18.90;100.00;99348.47;5113464;28;20060;-64
2023/08/02 02:30:51;;;;;;;4.72;1.30;;;;;;;19.03;100.00;99338.47;5113121;28;20122;-64
2023/08/02 02:33:18;;;;;;;2.38;1.25;;;;;;;19.04;100.00;99337.25;5111781;28;20052;-64
2023/08/02 02:35:45;;;;;;;3.40;1.00;;;;;;;19.08;100.00;99326.91;5113389;28;20795;-63
2023/08/02 02:38:13;;;;;;;4.30;1.30;;;;;;;19.19;100.00;99310.09;5113334;28;20063;-64
2023/08/02 02:40:40;;;;;;;3.28;1.10;;;;;;;19.29;100.00;99298.91;5090183;28;20052;-63
2023/08/02 02:43:08;;;;;;;2.58;1.20;;;;;;;19.21;100.00;99296.53;5106649;28;20158;-63
2023/08/02 02:45:35;;;;;;;2.28;1.23;;;;;;;18.97;100.00;99287.84;5116572;28;20051;-60
2023/08/02 02:48:03;;;;;;;2.22;1.08;;;;;;;19.25;100.00;99284.16;5104207;28;20701;-60
2023/08/02 02:50:30;;;;;;;2.35;1.25;;;;;;;19.13;100.00;99284.59;5083967;28;20052;-61
2023/08/02 02:52:58;;;;;;;4.13;1.77;;;;;;;19.24;100.00;99276.19;5095975;28;20036;-61
2023/08/02 02:55:27;;;;;;;5.03;1.40;;;;;;;19.19;100.00;99271.03;5081079;28;20055;-62
2023/08/02 02:57:54;;;;;;;3.22;1.30;;;;;;;19.30;100.00;99260.63;5096504;28;20506;-62
2023/08/02 03:00:21;;;;;;;3.22;1.05;;;;;;;19.30;100.00;99255.03;5095961;28;20052;-60
2023/08/02 03:02:49;;;;;;;3.20;1.00;;;;;;;19.26;100.00;99249.47;5061616;28;20036;-63
2023/08/02 03:05:17;;;;;;;2.53;1.20;;;;;;;19.20;100.00;99237.13;5090956;28;20064;-63
2023/08/02 03:07:46;;;;;;;2.08;0.93;;;;;;;19.29;100.00;99231.09;5080510;28;20056;-61
2023/08/02 03:10:13;;;;;;;2.03;0.68;;;;;;;19.35;100.00;99224.72;5089744;28;20067;-61
2023/08/02 03:12:40;;;;;;;2.97;0.60;;;;;;;19.43;100.00;99225.44;5095376;28;20052;-61
2023/08/02 03:15:08;;;;;;;2.30;1.02;;;;;;;19.32;100.00;99221.94;5094201;28;20052;-63
2023/08/02 03:17:36;;;;;;;1.55;0.82;;;;;;;19.55;100.00;99222.16;5095844;28;20064;-62
2023/08/02 03:20:03;;;;;;;2.47;0.82;;;;;;;19.57;100.00;99211.41;5095835;28;20687;-63
2023/08/02 03:22:32;;;;;;;3.08;0.80;;;;;;;19.66;100.00;99208.94;5077716;28;20052;-63
2023/08/02 03:25:00;;;;;;;2.20;0.85;;;;;;;19.63;100.00;99199.38;5095682;28;20051;-62
2023/08/02 03:27:27;;;;;;;3.60;0.85;;;;;;;19.68;100.00;99192.56;5077323;28;20055;-60
2023/08/02 03:29:56;;;;;;;1.20;0.50;;;;;;;19.76;100.00;99183.72;5094141;28;20052;-61
2023/08/02 03:32:23;;;;;;;0.95;0.45;;;;;;;19.54;100.00;99190.69;5095766;28;20048;-60
2023/08/02 03:34:50;;;;;;;1.95;0.57;;;;;;;19.58;100.00;99188.63;5095565;28;20669;-61
2023/08/02 03:37:18;;;;;;;0.50;0.40;;;;;;;19.88;100.00;99176.81;5086679;28;20051;-61
2023/08/02 03:39:45;;;;;;;2.33;0.60;;;;;;;19.87;100.00;99178.84;5063308;28;20059;-61
2023/08/02 03:42:12;;;;;;;1.00;0.40;;;;;;;19.84;100.00;99171.25;5094140;28;20055;-61
2023/08/02 03:44:40;;;;;;;0.95;0.60;;;;;;;19.98;100.00;99176.72;5094897;28;20052;-63
2023/08/02 03:47:07;;;;;;;1.67;0.60;;;;;;;19.83;100.00;99171.66;5056839;28;20056;-64
2023/08/02 03:49:36;;;;;;;1.40;0.50;;;;;;;19.68;100.00;99173.78;5072370;28;20053;-63
2023/08/02 03:52:03;;;;;;;1.50;0.73;;;;;;;19.88;100.00;99169.22;5086559;28;20059;-61
2023/08/02 03:54:31;;;;;;;1.45;0.60;;;;;;;19.77;100.00;99160.13;5058945;28;20054;-63
2023/08/02 03:56:58;;;;;;;2.95;0.65;;;;;;;19.72;100.00;99162.56;5096651;28;20054;-64
2023/08/02 03:59:25;;;;;;;1.88;0.73;;;;;;;19.84;100.00;99167.69;5115528;28;20059;-63
2023/08/02 04:01:53;;;;;;;1.08;0.70;;;;;;;19.96;100.00;99162.34;5077542;28;20051;-61
2023/08/02 04:04:21;;;;;;;2.13;0.63;;;;;;;20.10;100.00;99164.25;5094804;28;20048;-61
2023/08/02 04:06:49;;;;;;;3.00;0.80;;;;;;;20.04;100.00;99154.72;5092469;28;20052;-60
2023/08/02 04:09:16;;;;;;;3.03;0.75;;;;;;;19.86;100.00;99151.28;5094438;28;20063;-64
2023/08/02 04:11:43;;;;;;;1.52;0.70;;;;;;;20.04;100.00;99157.50;5094748;28;20069;-63
2023/08/02 04:14:11;;;;;;;1.25;0.68;;;;;;;20.04;100.00;99158.31;5076079;28;20048;-63
2023/08/02 04:16:38;;;;;;;1.98;0.75;;;;;;;20.10;100.00;99148.25;5094692;28;20056;-61
2023/08/02 04:19:06;;;;;;;2.97;0.70;;;;;;;19.93;100.00;99149.22;5094250;28;20048;-60
2023/08/02 04:21:33;;;;;;;1.45;0.80;;;;;;;20.13;100.00;99158.63;5094427;28;20506;-60
2023/08/02 04:24:01;;;;;;;2.10;1.00;;;;;;;20.20;100.00;99145.78;5093365;28;20051;-60
2023/08/02 04:26:28;;;;;;;1.70;0.70;;;;;;;20.18;100.00;99135.03;5093856;28;20048;-63
2023/08/02 04:28:55;;;;;;;1.20;0.60;;;;;;;20.11;100.00;99132.28;5093318;28;20052;-61
2023/08/02 04:31:23;;;;;;;1.15;0.68;;;;;;;20.27;100.00;99140.13;5076047;28;20058;-60
2023/08/02 04:33:51;;;;;;;1.50;0.85;;;;;;;20.31;100.00;99130.47;5076276;28;20051;-61
2023/08/02 04:36:18;;;;;;;0.93;0.60;;;;;;;20.33;100.00;99127.28;5074975;28;20056;-61
2023/08/02 04:38:45;;;;;;;2.05;0.88;;;;;;;20.27;100.00;99126.13;5094151;28;20044;-61
2023/08/02 04:41:16;;;;;;;2.28;0.80;;;;;;;20.25;100.00;99123.75;5112509;28;20047;-60
2023/08/02 04:43:45;;;;;;;2.80;0.80;;;;;;;20.53;100.00;99122.63;5125498;27;20047;-61
2023/08/02 04:46:13;;;;;;;2.22;0.70;;;;;;;20.31;100.00;99126.91;5115575;27;20054;-61
2023/08/02 04:48:40;;;;;;;1.70;0.75;;;;;;;20.37;100.00;99122.41;5097945;28;20067;-60
2023/08/02 04:51:08;;;;;;;1.65;0.77;;;;;;;20.59;100.00;99120.97;5095804;28;20044;-61
2023/08/02 04:53:35;;;;;;;0.57;0.52;;;;;;;20.36;100.00;99109.66;5113454;28;20070;-60
2023/08/02 04:56:02;;;;;;;1.50;0.70;;;;;;;20.36;100.00;99107.66;5097903;28;20055;-61
2023/08/02 04:58:30;;;;;;;1.77;0.50;;;;;;;20.35;100.00;99111.66;5095126;28;20060;-61
2023/08/02 05:01:01;;;;;;;1.95;0.68;;;;;;;20.38;100.00;99107.25;5114029;28;20043;-61
2023/08/02 05:03:28;;;;;;;1.10;0.60;;;;;;;20.41;100.00;99098.81;5095802;28;20044;-61
2023/08/02 05:06:00;;;;;;;1.73;0.80;;;;;;;20.39;100.00;99090.03;5113929;28;20423;-60
2023/08/02 05:08:33;;;;;;;0.50;0.47;;;;;;;20.52;100.00;99096.66;5116781;27;20047;-61
2023/08/02 05:11:01;;;;;;;1.73;0.70;;;;;;;20.65;100.00;99094.91;5112812;28;20051;-63
2023/08/02 05:13:28;;;;;;;1.30;0.52;;;;;;;20.44;100.00;99095.16;5112803;28;20581;-61
2023/08/02 05:15:56;;;;;;;0.85;0.55;;;;;;;20.40;100.00;99090.84;5113867;28;20414;-60
2023/08/02 05:18:23;;;;;;;1.48;0.82;;;;;;;20.36;100.00;99076.91;5094110;28;20139;-61
2023/08/02 05:20:52;;;;;;;2.38;1.15;;;;;;;20.40;100.00;99066.44;5095238;28;20059;-62
2023/08/02 05:23:19;;;;;;;3.00;0.93;;;;;;;20.58;100.00;99066.22;5079207;28;20059;-61
2023/08/02 05:25:47;;;;;;;1.60;0.70;;;;;;;20.58;100.00;99069.00;5095864;28;20055;-61
2023/08/02 05:28:14;;;;;;;2.55;0.70;;;;;;;20.45;100.00;99065.19;5091031;28;20048;-61
2023/08/02 05:30:42;;;;;;;1.73;0.80;;;;;;;20.51;100.00;99066.31;5089790;28;20054;-61
2023/08/02 05:33:09;;;;;;;2.72;0.68;;;;;;;20.79;100.00;99060.31;5095801;28;20053;-62
2023/08/02 05:35:36;;;;;;;2.20;0.70;;;;;;;20.70;100.00;99057.25;5113791;28;20076;-61
2023/08/02 05:38:04;;;;;;;1.60;0.60;;;;;;;20.52;100.00;99043.50;5113342;28;20412;-61
2023/08/02 05:40:32;;;;;;;1.90;0.90;;;;;;;20.61;100.00;99054.16;5113685;28;20064;-64
2023/08/02 05:42:59;;;;;;;1.92;0.75;;;;;;;20.77;100.00;99048.75;5123201;28;20126;-61
2023/08/02 05:45:27;;;;;;;2.08;0.70;;;;;;;20.87;100.00;99045.03;5108352;28;20055;-63
2023/08/02 05:47:54;;;;;;;2.10;1.00;;;;;;;20.78;100.00;99051.13;5104870;28;20052;-63
2023/08/02 05:50:21;;;;;;;1.85;0.80;;;;;;;20.82;100.00;99040.69;5094959;28;20059;-61
2023/08/02 05:52:49;;;;;;;3.78;1.20;;;;;;;20.81;100.00;99046.72;5091761;28;20063;-64
2023/08/02 05:55:18;;;;;;;2.78;0.82;;;;;;;20.92;100.00;99042.53;5065687;28;20535;-63
2023/08/02 05:57:48;;;;;;;2.05;0.85;;;;;;;21.11;100.00;99049.47;5045703;28;20050;-63
2023/08/02 06:00:16;;;;;;;2.83;0.73;;;;;;;20.77;100.00;99049.56;5113518;28;20043;-61
2023/08/02 06:02:44;;;;;;;4.60;0.75;;;;;;;20.83;100.00;99038.69;5113687;28;20292;-62
2023/08/02 06:05:15;;;;;;;2.53;0.90;;;;;;;20.77;100.00;99043.97;5096156;28;20050;-63
2023/08/02 06:07:42;;;;;;;2.53;0.95;;;;;;;20.70;100.00;99040.47;5077905;28;20047;-61
2023/08/02 06:10:10;;;;;;;2.85;1.00;;;;;;;20.78;100.00;99034.34;5076502;28;20047;-64
2023/08/02 06:12:37;;;;;;;3.30;0.65;;;;;;;21.00;100.00;99035.66;5113091;28;20047;-62
2023/08/02 06:15:05;;;;;;;2.05;0.90;;;;;;;20.98;100.00;99018.47;5095332;28;20047;-63
2023/08/02 06:17:33;;;;;;;3.42;0.88;;;;;;;20.98;100.00;99037.25;5093739;28;20055;-64
2023/08/02 06:20:00;;;;;;;2.72;1.20;;;;;;;20.96;100.00;99014.47;5117276;28;20050;-63
2023/08/02 06:22:28;;;;;;;2.17;1.13;;;;;;;20.93;100.00;99012.53;5117513;28;20048;-64
2023/08/02 06:24:58;;;;;;;4.00;1.05;;;;;;;21.02;100.00;99007.22;5098663;28;20051;-63
2023/08/02 06:27:25;;;;;;;2.25;0.93;;;;;;;21.03;100.00;99011.59;5116675;28;20054;-60
2023/08/02 06:29:53;;;;;;;2.20;1.00;;;;;;;21.23;100.00;99001.28;5115128;28;20057;-60
2023/08/02 06:32:20;;;;;;;2.90;0.82;;;;;;;21.20;100.00;99008.50;5083849;28;20043;-62
2023/08/02 06:34:48;;;;;;;2.83;0.77;;;;;;;21.21;100.00;98984.09;5108536;28;20055;-60
2023/08/02 06:37:15;;;;;;;3.40;0.90;;;;;;;21.36;100.00;99005.03;5095113;28;20113;-61
2023/08/02 06:39:43;;;;;;;1.67;0.80;;;;;;;21.31;100.00;99002.72;5115000;27;20071;-60
2023/08/02 06:42:10;;;;;;;2.45;0.90;;;;;;;21.48;100.00;99007.22;5086796;28;20063;-60
2023/08/02 06:44:37;;;;;;;2.53;0.82;;;;;;;21.51;100.00;98992.38;5113782;28;20059;-62
2023/08/02 06:47:05;;;;;;;2.10;1.00;;;;;;;21.29;100.00;99010.75;5095159;28;20051;-62
2023/08/02 06:49:35;;;;;;;2.20;1.00;;;;;;;21.25;100.00;98998.84;5110579;27;20048;-61
2023/08/02 06:52:02;;;;;;;;;;;;;;;21.12;100.00;98975.44;5106139;28;20058;-61
2023/08/02 06:54:30;;;;;;;3.28;1.20;;;;;;;21.00;100.00;98962.88;5110371;28;19927;-62
2023/08/02 06:56:57;;;;;;;5.82;1.60;;;;;;;21.10;100.00;98973.09;5104531;28;20574;-60
2023/08/02 06:59:25;;;;;;;8.13;2.65;;;;;;;21.01;100.00;98983.22;5119854;27;20070;-63
2023/08/02 07:01:53;;;;;;;6.07;1.35;;;;;;;21.17;100.00;98974.97;5110701;28;20046;-62
2023/08/02 07:04:20;;;;;;;3.78;0.80;;;;;;;21.37;100.00;98994.63;5110896;28;20036;-63
2023/08/02 07:06:48;;;;;;;3.45;0.90;;;;;;;21.40;100.00;98977.75;5107504;28;20052;-62
2023/08/02 07:09:15;;;;;;;3.00;1.20;;;;;;;21.45;100.00;98982.06;5092600;28;20675;-63
2023/08/02 07:11:42;;;;;;;2.65;0.90;;;;;;;21.64;100.00;98984.09;5114119;27;20577;-62
2023/08/02 07:14:10;;;;;;;2.03;1.00;;;;;;;21.56;100.00;98979.88;5113687;27;20046;-61
2023/08/02 07:16:37;;;;;;;9.98;5.93;;;;;;;21.46;100.00;98973.25;5093734;28;20059;-60
2023/08/02 07:19:04;;;;;;;1.73;0.80;;;;;;;21.69;100.00;98964.03;5111745;28;20036;-61
2023/08/02 07:21:31;;;;;;;1.92;1.00;;;;;;;21.58;100.00;98955.00;5093361;28;20051;-60
2023/08/02 07:23:59;;;;;;;2.83;0.80;;;;;;;21.48;100.00;98956.00;5106168;28;20083;-61
2023/08/02 07:26:26;;;;;;;3.03;0.82;;;;;;;21.77;100.00;98962.66;5076125;28;20054;-61
2023/08/02 07:28:54;;;;;;;2.38;0.90;;;;;;;21.98;100.00;98957.44;5113549;28;20054;-63
2023/08/02 07:31:21;;;;;;;2.03;0.70;;;;;;;21.83;100.00;98955.34;5111057;27;20069;-62
2023/08/02 07:33:49;;;;;;;3.15;0.70;;;;;;;21.95;100.00;98954.72;5080134;28;20047;-60
2023/08/02 07:36:18;;;;;;;1.35;0.70;;;;;;;22.07;100.00;98965.28;5113492;28;20047;-62
2023/08/02 07:38:46;;;;;;;3.92;1.10;;;;;;;22.09;100.00;98957.19;5114941;28;20050;-65
2023/08/02 07:41:13;;;;;;;2.47;0.77;;;;;;;21.88;100.00;98961.22;5113781;27;20054;-61
2023/08/02 07:43:41;;;;;;;2.78;0.80;;;;;;;22.32;99.22;98959.91;5112492;28;20055;-62
2023/08/02 07:46:23;;;;;;;2.70;0.80;;;;;;;22.33;97.83;98962.25;5114381;28;20036;-61
2023/08/02 07:48:51;;;;;;;2.60;0.60;;;;;;;22.37;96.96;98953.00;5114039;27;20048;-64
2023/08/02 07:51:19;;;;;;;2.13;0.85;;;;;;;22.35;96.96;98950.63;5114221;28;20051;-62
2023/08/02 07:53:48;;;;;;;2.13;0.63;;;;;;;22.37;96.83;98955.81;5109638;28;20055;-62
2023/08/02 07:56:15;;;;;;;4.80;0.77;;;;;;;22.27;96.13;98963.22;5108753;28;20093;-62
2023/08/02 07:58:43;;;;;;;7.07;1.10;;;;;;;22.35;96.35;98948.59;5112868;28;20047;-61
2023/08/02 08:01:10;;;;;;;7.40;0.70;;;;;;;22.52;93.53;98969.06;5112494;28;20039;-62
2023/08/02 08:03:38;;;;;;;2.30;0.45;;;;;;;22.58;94.47;98953.31;5108236;28;20051;-60
2023/08/02 08:06:13;;;;;;;1.90;0.50;;;;;;;22.73;92.76;98950.97;5086795;28;20047;-61
2023/08/02 08:08:41;;;;;;;2.53;0.60;;;;;;;22.68;93.16;98949.50;5100376;28;20058;-61
2023/08/02 08:11:09;;;;;;;0.82;0.40;;;;;;;22.67;92.62;98952.72;5088295;28;20067;-62
2023/08/02 08:13:36;;;;;;;1.95;0.40;;;;;;;22.88;91.35;98953.00;5070872;28;20055;-64
2023/08/02 08:16:04;;;;;;;8.63;0.77;;;;;;;22.99;90.85;98949.94;5106177;28;20043;-62
2023/08/02 08:18:32;;;;;;;9.18;0.82;;;;;;;22.78;91.79;98950.44;5107945;28;20052;-61
2023/08/02 08:21:04;;;;;;;0.95;0.40;;;;;;;23.00;91.52;98946.66;5109564;28;20044;-62
2023/08/02 08:23:32;;;;;;;1.80;0.60;;;;;;;23.06;90.80;98947.72;5112390;27;20060;-61
2023/08/02 08:26:00;;;;;;;3.00;0.45;;;;;;;23.35;90.52;98948.59;5099933;28;20044;-62
2023/08/02 08:28:27;;;;;;;2.88;0.68;;;;;;;23.50;89.37;98942.59;5091697;28;20055;-62
2023/08/02 08:31:02;;;;;;;6.68;0.57;;;;;;;23.66;86.20;98948.19;5113885;28;20043;-63
2023/08/02 08:33:31;;;;;;;1.95;0.50;;;;;;;23.58;86.98;98932.72;5110483;28;20535;-61
2023/08/02 08:35:58;;;;;;;1.40;0.38;;;;;;;23.58;86.54;98932.72;5094633;28;20043;-63
2023/08/02 08:38:25;;;;;;;3.70;0.52;;;;;;;23.57;86.25;98934.78;5113849;28;20051;-62
2023/08/02 08:40:54;;;;;;;1.65;0.68;;;;;;;23.34;86.33;98926.56;5113422;28;20518;-62
2023/08/02 08:43:26;;;;;;;2.38;0.60;;;;;;;23.39;85.90;98926.03;5115834;27;20039;-61
2023/08/02 08:45:55;;;;;;;1.73;0.77;;;;;;;23.15;86.54;98910.59;5101645;28;20047;-61
2023/08/02 08:48:24;;;;;;;2.25;0.90;;;;;;;23.27;86.40;98918.28;5112591;28;20044;-62
2023/08/02 08:50:56;;;;;;;2.90;0.93;;;;;;;23.49;85.54;98918.53;5112814;28;20060;-62
2023/08/02 08:53:35;;;;;;;1.40;0.60;;;;;;;23.48;83.78;98919.75;5113668;28;20050;-61
2023/08/02 08:56:04;;;;;;;1.77;0.50;;;;;;;23.34;84.54;98910.47;5094971;28;20055;-61
2023/08/02 08:58:32;;;;;;;2.58;0.50;;;;;;;23.53;83.85;98916.41;5114702;27;20051;-60
2023/08/02 09:01:05;;;;;;;1.40;0.68;;;;;;;23.66;81.92;98906.78;5094153;28;20063;-61
2023/08/02 09:03:33;;;;;;;1.33;0.65;;;;;;;23.80;81.45;98911.22;5088576;28;20438;-63
2023/08/02 09:06:03;;;;;;;3.20;0.50;;;;;;;23.71;80.89;98897.78;5090227;28;20369;-61
2023/08/02 09:08:43;;;;;;;15.10;10.93;;;;;;;23.75;80.67;98897.69;5115836;27;20055;-62
2023/08/02 09:11:11;;;;;;;3.63;0.80;;;;;;;23.53;79.84;98905.16;5112736;28;20048;-61
2023/08/02 09:13:39;;;;;;;1.95;0.50;;;;;;;23.79;79.62;98899.19;5112583;27;20043;-60
2023/08/02 09:16:14;;;;;;;1.13;0.50;;;;;;;23.94;77.13;98902.34;5112857;28;20050;-60
2023/08/02 09:18:47;;;;;;;5.88;0.85;;;;;;;23.87;76.81;98900.53;5112301;28;20055;-61
2023/08/02 09:21:17;;;;;;;1.00;0.40;;;;;;;23.86;76.68;98907.41;5095469;28;20047;-61
2023/08/02 09:23:55;;;;;;;4.53;0.80;;;;;;;23.88;75.82;98910.56;5094307;28;20039;-62
2023/08/02 09:26:23;;;;;;;5.47;0.70;;;;;;;23.99;75.48;98913.88;5113089;28;20043;-62
2023/08/02 09:28:58;;;;;;;3.13;0.90;;;;;;;23.85;75.82;98903.00;5110455;28;20039;-61
2023/08/02 09:31:27;;;;;;;2.97;0.60;;;;;;;24.08;74.49;98894.31;5109186;28;20047;-61
2023/08/02 09:33:55;;;;;;;5.60;0.63;;;;;;;24.00;72.97;98900.59;5112196;28;20051;-61
2023/08/02 09:36:30;;;;;;;3.60;0.52;;;;;;;23.79;71.21;98916.06;5110832;28;20035;-61
2023/08/02 09:39:10;;;;;;;5.20;0.70;;;;;;;23.92;71.74;98890.78;5094428;28;20051;-61
2023/08/02 09:41:37;;;;;;;4.68;0.70;;;;;;;24.34;70.96;98901.53;5111225;28;20044;-62
2023/08/02 09:44:25;;;;;;;3.45;0.70;;;;;;;24.39;69.33;98905.84;5109169;28;20477;-61
2023/08/02 09:46:53;;;;;;;3.53;0.70;;;;;;;24.55;67.46;98888.03;5107084;28;20066;-62
2023/08/02 09:49:21;;;;;;;1.88;0.60;;;;;;;24.55;67.37;98902.13;5094907;28;20043;-60
2023/08/02 09:51:48;;;;;;;2.08;0.75;;;;;;;24.62;65.93;98896.25;5114462;28;20047;-62
2023/08/02 09:54:16;;;;;;;3.47;1.02;;;;;;;24.81;65.66;98898.06;5116279;28;20067;-62
2023/08/02 09:56:43;;;;;;;2.15;0.75;;;;;;;24.70;64.49;98906.06;5116473;28;20051;-62
2023/08/02 09:59:11;;;;;;;3.15;0.70;;;;;;;24.16;66.93;98915.38;5114845;28;20044;-62
2023/08/02 10:01:40;;;;;;;3.92;0.90;;;;;;;23.80;67.55;98925.28;5074785;28;20066;-63
2023/08/02 10:04:10;;;;;;;2.75;1.00;;;;;;;23.64;66.68;98922.53;5079415;27;20434;-62
2023/08/02 10:06:41;;;;;;;2.47;0.80;;;;;;;23.35;66.78;98930.94;5090626;28;20043;-62
2023/08/02 10:09:11;;;;;;;3.85;1.17;;;;;;;23.23;64.75;98946.47;5105334;28;20177;-61
2023/08/02 10:11:47;;;;;;;3.92;0.85;;;;;;;23.04;62.47;98932.53;5090216;28;20043;-61
2023/08/02 10:14:15;;;;;;;6.03;1.10;;;;;;;22.95;62.60;98938.78;5087577;28;20064;-62
2023/08/02 10:16:43;;;;;;;4.60;0.90;;;;;;;23.04;61.68;98940.97;5110250;28;20047;-65
2023/08/02 10:19:12;;;;;;;7.82;1.20;;;;;;;23.37;62.01;98934.91;5089419;28;20538;-61
2023/08/02 10:21:39;;;;;;;6.18;1.50;;;;;;;23.52;60.63;98928.91;5108593;27;20069;-62
2023/08/02 10:24:08;;;;;;;6.95;1.10;;;;;;;23.50;60.29;98931.34;5109835;28;20050;-62
2023/08/02 10:26:35;;;;;;;5.78;1.25;;;;;;;23.24;60.26;98922.75;5093555;28;20057;-61
2023/08/02 10:29:03;;;;;;;5.38;1.70;;;;;;;22.92;61.56;98927.63;5095203;28;20075;-62
2023/08/02 10:31:30;;;;;;;8.80;4.97;;;;;;;22.90;60.69;98927.28;5102294;28;20067;-61
2023/08/02 10:33:58;;;;;;;23.23;12.43;;;;;;;22.93;61.58;98932.00;5112794;28;20043;-64
2023/08/02 10:36:25;;;;;;;10.52;5.10;;;;;;;23.03;61.08;98940.16;5108991;28;20040;-61
2023/08/02 10:38:53;;;;;;;6.88;3.30;;;;;;;23.06;61.30;98942.13;5083711;28;20052;-62
2023/08/02 10:41:23;;;;;;;8.18;3.30;;;;;;;23.23;61.65;98938.06;5097172;28;20051;-61
2023/08/02 10:43:53;;;;;;;13.88;6.22;;;;;;;23.43;59.76;98930.31;5115662;28;20067;-61
2023/08/02 10:46:26;;;;;;;8.13;3.20;;;;;;;23.64;58.56;98925.34;5112767;28;20047;-61
2023/08/02 10:49:09;;;;;;;7.07;2.83;;;;;;;23.85;58.39;98930.38;5112980;28;20051;-62
2023/08/02 10:51:37;;;;;;;7.18;1.80;;;;;;;23.35;55.07;98942.19;5107223;28;20638;-61
2023/08/02 10:54:15;;;;;;;8.30;3.08;;;;;;;22.87;57.34;98948.63;5108840;28;20062;-61
2023/08/02 10:56:52;;;;;;;18.90;9.60;;;;;;;22.61;55.72;98946.06;5103847;27;20479;-61
2023/08/02 10:59:22;;;;;;;14.65;8.10;;;;;;;22.80;56.18;98939.56;5103962;28;20636;-60
2023/08/02 11:01:58;;;;;;;10.05;3.75;;;;;;;22.96;52.49;98922.72;5111654;28;20056;-62
2023/08/02 11:04:27;;;;;;;9.40;4.13;;;;;;;23.15;50.82;98916.97;5110984;28;20047;-61
2023/08/02 11:06:54;;;;;;;8.07;3.60;;;;;;;23.08;49.29;98924.81;5076271;28;20053;-60
2023/08/02 11:09:34;;;;;;;8.70;4.45;;;;;;;23.18;49.38;98947.03;5109092;28;20109;-59
2023/08/02 11:12:11;;;;;;;9.57;4.60;;;;;;;23.35;49.91;98931.75;5103896;28;20670;-61
2023/08/02 11:14:39;;;;;;;11.38;4.95;;;;;;;23.45;48.83;98935.47;5110221;28;20051;-60
2023/08/02 11:17:08;;;;;;;10.55;3.78;;;;;;;23.60;48.54;98921.84;5093757;28;20437;-60
2023/08/02 11:19:38;;;;;;;10.13;3.00;;;;;;;23.56;49.21;98932.38;5112130;28;20043;-61
2023/08/02 11:22:06;;;;;;;11.38;3.25;;;;;;;23.62;48.61;98933.44;5097142;28;20428;-60
2023/08/02 11:25:00;;;;;;;8.27;2.72;;;;;;;23.73;48.57;98942.38;5113578;28;20074;-60
2023/08/02 11:27:27;;;;;;;10.57;3.05;;;;;;;23.31;50.06;98950.72;5106280;28;20054;-60
2023/08/02 11:29:58;;;;;;;11.82;2.45;;;;;;;23.33;49.04;98934.19;5111432;27;20047;-60
2023/08/02 11:32:27;;;;;;;7.20;2.08;;;;;;;23.68;49.10;98949.31;5092073;28;20040;-60
2023/08/02 11:34:54;;;;;;;8.45;2.42;;;;;;;23.85;48.80;98948.00;5109105;28;20059;-60